createdAt,value
2018-07-14T00:00:42.878Z,18.23
2018-07-14T00:02:35.880Z,18.19
2018-07-14T00:03:35.936Z,18.19
2018-07-14T00:05:28.929Z,18.20
2018-07-14T00:06:28.998Z,18.18
2018-07-14T00:08:21.993Z,18.19
2018-07-14T00:09:22.048Z,18.18
2018-07-14T00:11:15.057Z,18.18
2018-07-14T00:12:15.112Z,18.13
2018-07-14T00:14:08.109Z,18.11
2018-07-14T00:15:08.172Z,18.11
2018-07-14T00:17:01.171Z,18.05
2018-07-14T00:18:01.229Z,17.95
2018-07-14T00:19:54.219Z,17.94
2018-07-14T00:20:54.284Z,17.94
2018-07-14T00:22:47.287Z,18.00
2018-07-14T00:23:47.341Z,17.97
2018-07-14T00:25:40.333Z,17.94
2018-07-14T00:26:40.397Z,17.92
2018-07-14T00:28:33.398Z,17.92
2018-07-14T00:29:33.467Z,17.89
2018-07-14T00:31:26.450Z,17.94
2018-07-14T00:32:26.515Z,17.92
2018-07-14T00:34:19.518Z,17.89
2018-07-14T00:35:19.570Z,17.86
2018-07-14T00:37:12.570Z,17.71
2018-07-14T00:38:12.628Z,17.79
2018-07-14T00:40:05.620Z,17.82
2018-07-14T00:41:05.686Z,17.70
2018-07-14T00:42:58.686Z,17.64
2018-07-14T00:43:58.745Z,17.64
2018-07-14T00:45:51.740Z,17.64
2018-07-14T00:46:51.803Z,17.64
2018-07-14T00:48:44.802Z,17.54
2018-07-14T00:49:44.861Z,17.59
2018-07-14T00:51:37.852Z,17.54
2018-07-14T00:52:37.923Z,17.54
2018-07-14T00:54:30.917Z,17.51
2018-07-14T00:55:30.976Z,17.51
2018-07-14T00:57:23.980Z,17.48
2018-07-14T00:58:24.038Z,17.46
2018-07-14T01:00:17.043Z,17.45
2018-07-14T01:01:17.102Z,17.46
2018-07-14T01:03:10.100Z,17.34
2018-07-14T01:04:10.166Z,17.48
2018-07-14T01:06:03.158Z,17.42
2018-07-14T01:07:03.222Z,17.42
2018-07-14T01:08:56.221Z,17.36
2018-07-14T01:09:56.282Z,17.31
2018-07-14T01:11:49.282Z,17.19
2018-07-14T01:12:49.339Z,17.22
2018-07-14T01:14:42.347Z,17.19
2018-07-14T01:15:42.407Z,17.27
2018-07-14T01:17:35.403Z,17.27
2018-07-14T01:18:35.463Z,17.23
2018-07-14T01:20:28.464Z,17.20
2018-07-14T01:21:28.526Z,17.16
2018-07-14T01:23:21.522Z,17.14
2018-07-14T01:24:21.580Z,17.02
2018-07-14T01:26:14.579Z,17.08
2018-07-14T01:27:14.640Z,17.08
2018-07-14T01:29:07.640Z,17.09
2018-07-14T01:30:07.697Z,17.06
2018-07-14T01:32:00.688Z,16.99
2018-07-14T01:33:00.752Z,16.99
2018-07-14T01:34:53.759Z,16.84
2018-07-14T01:35:53.817Z,16.93
2018-07-14T01:37:46.808Z,16.87
2018-07-14T01:38:46.871Z,16.89
2018-07-14T01:40:39.917Z,16.79
2018-07-14T01:41:39.927Z,16.83
2018-07-14T01:43:32.922Z,16.81
2018-07-14T01:44:32.988Z,16.83
2018-07-14T01:46:25.983Z,16.75
2018-07-14T01:47:26.041Z,16.81
2018-07-14T01:49:19.040Z,16.72
2018-07-14T01:50:19.096Z,16.74
2018-07-14T01:52:12.093Z,16.61
2018-07-14T01:53:12.160Z,16.69
2018-07-14T01:55:05.156Z,16.61
2018-07-14T01:56:05.213Z,16.64
2018-07-14T01:57:58.211Z,16.61
2018-07-14T01:58:58.311Z,16.53
2018-07-14T02:00:51.272Z,16.61
2018-07-14T02:01:51.328Z,16.60
2018-07-14T02:03:44.328Z,16.60
2018-07-14T02:04:44.389Z,16.61
2018-07-14T02:06:37.900Z,16.68
2018-07-14T02:07:37.955Z,16.65
2018-07-14T02:09:30.954Z,16.60
2018-07-14T02:10:31.012Z,16.51
2018-07-14T02:12:24.004Z,16.53
2018-07-14T02:13:24.067Z,16.60
2018-07-14T02:15:17.064Z,16.54
2018-07-14T02:16:17.122Z,16.47
2018-07-14T02:18:10.113Z,16.50
2018-07-14T02:19:10.176Z,16.39
2018-07-14T02:21:03.174Z,16.47
2018-07-14T02:22:03.231Z,16.41
2018-07-14T02:23:56.228Z,16.41
2018-07-14T02:24:56.293Z,16.35
2018-07-14T02:26:49.323Z,16.35
2018-07-14T02:27:49.347Z,16.41
2018-07-14T02:29:42.347Z,16.41
2018-07-14T02:30:42.402Z,16.33
2018-07-14T02:32:35.394Z,16.23
2018-07-14T02:33:35.461Z,16.26
2018-07-14T02:35:28.474Z,16.21
2018-07-14T02:36:28.524Z,16.29
2018-07-14T02:38:21.513Z,16.31
2018-07-14T02:39:21.577Z,16.21
2018-07-14T02:41:14.580Z,16.31
2018-07-14T02:42:14.640Z,16.23
2018-07-14T02:44:07.631Z,16.32
2018-07-14T02:45:07.695Z,16.28
2018-07-14T02:47:00.691Z,16.26
2018-07-14T02:48:00.750Z,16.28
2018-07-14T02:49:53.750Z,16.17
2018-07-14T02:50:53.805Z,16.16
2018-07-14T02:52:46.805Z,16.05
2018-07-14T02:53:46.863Z,16.09
2018-07-14T02:55:39.859Z,15.98
2018-07-14T02:56:39.921Z,16.04
2018-07-14T02:58:32.910Z,15.95
2018-07-14T02:59:32.972Z,15.84
2018-07-14T03:01:25.973Z,15.79
2018-07-14T03:02:26.048Z,15.76
2018-07-14T03:04:19.027Z,15.77
2018-07-14T03:05:19.088Z,15.83
2018-07-14T03:07:12.598Z,15.84
2018-07-14T03:08:12.652Z,15.88
2018-07-14T03:10:05.641Z,16.01
2018-07-14T03:11:05.705Z,15.92
2018-07-14T03:12:58.767Z,15.94
2018-07-14T03:13:58.759Z,16.00
2018-07-14T03:15:51.754Z,16.05
2018-07-14T03:16:51.815Z,15.98
2018-07-14T03:18:44.812Z,15.95
2018-07-14T03:19:44.867Z,15.91
2018-07-14T03:21:37.872Z,15.91
2018-07-14T03:22:37.929Z,15.95
2018-07-14T03:24:30.934Z,15.92
2018-07-14T03:25:30.993Z,15.92
2018-07-14T03:27:23.988Z,16.00
2018-07-14T03:28:24.254Z,15.86
2018-07-14T03:30:17.041Z,15.98
2018-07-14T03:31:17.099Z,15.98
2018-07-14T03:33:10.139Z,15.97
2018-07-14T03:34:10.158Z,15.80
2018-07-14T03:36:03.150Z,15.90
2018-07-14T03:37:03.212Z,15.84
2018-07-14T03:38:56.212Z,15.92
2018-07-14T03:39:56.270Z,15.91
2018-07-14T03:41:49.340Z,15.79
2018-07-14T03:42:49.404Z,15.82
2018-07-14T03:44:42.385Z,15.65
2018-07-14T03:45:42.447Z,15.65
2018-07-14T03:47:35.450Z,15.79
2018-07-14T03:48:35.504Z,15.75
2018-07-14T03:50:28.492Z,15.90
2018-07-14T03:51:28.554Z,15.91
2018-07-14T03:53:21.557Z,15.92
2018-07-14T03:54:21.614Z,15.97
2018-07-14T03:56:14.605Z,15.97
2018-07-14T03:57:14.667Z,15.97
2018-07-14T03:59:07.668Z,15.76
2018-07-14T04:00:07.721Z,15.82
2018-07-14T04:02:00.713Z,15.84
2018-07-14T04:03:00.776Z,15.82
2018-07-14T04:04:53.773Z,15.97
2018-07-14T04:05:53.828Z,15.90
2018-07-14T04:07:47.334Z,16.09
2018-07-14T04:08:47.389Z,16.09
2018-07-14T04:10:40.394Z,16.02
2018-07-14T04:11:40.453Z,16.05
2018-07-14T04:13:33.456Z,16.13
2018-07-14T04:14:33.513Z,16.04
2018-07-14T04:16:26.511Z,16.17
2018-07-14T04:17:26.573Z,16.10
2018-07-14T04:19:19.571Z,16.17
2018-07-14T04:20:19.627Z,16.12
2018-07-14T04:22:12.619Z,16.12
2018-07-14T04:23:12.681Z,16.10
2018-07-14T04:25:05.679Z,16.15
2018-07-14T04:26:05.737Z,16.13
2018-07-14T04:27:58.745Z,16.17
2018-07-14T04:28:58.788Z,16.17
2018-07-14T04:30:51.785Z,16.28
2018-07-14T04:31:51.854Z,16.12
2018-07-14T04:33:44.844Z,16.26
2018-07-14T04:34:44.900Z,16.31
2018-07-14T04:36:37.890Z,16.20
2018-07-14T04:37:37.954Z,16.29
2018-07-14T04:39:30.950Z,16.31
2018-07-14T04:40:31.006Z,16.28
2018-07-14T04:42:24.047Z,16.20
2018-07-14T04:43:24.061Z,16.10
2018-07-14T04:45:17.065Z,16.20
2018-07-14T04:46:17.123Z,16.23
2018-07-14T04:48:10.115Z,16.20
2018-07-14T04:49:10.176Z,16.17
2018-07-14T04:51:03.174Z,16.16
2018-07-14T04:52:03.233Z,16.17
2018-07-14T04:53:56.229Z,16.20
2018-07-14T04:54:56.286Z,16.21
2018-07-14T04:56:49.291Z,16.28
2018-07-14T04:57:49.353Z,16.33
2018-07-14T04:59:42.349Z,16.38
2018-07-14T05:00:42.406Z,16.41
2018-07-14T05:02:35.398Z,16.38
2018-07-14T05:03:35.459Z,16.46
2018-07-14T05:05:28.459Z,16.41
2018-07-14T05:06:28.524Z,16.42
2018-07-14T05:08:21.508Z,16.56
2018-07-14T05:09:21.570Z,16.54
2018-07-14T05:11:14.568Z,16.66
2018-07-14T05:12:14.627Z,16.72
2018-07-14T05:14:07.622Z,16.79
2018-07-14T05:15:07.683Z,16.76
2018-07-14T05:17:00.688Z,16.75
2018-07-14T05:18:00.736Z,16.72
2018-07-14T05:19:53.749Z,16.89
2018-07-14T05:20:53.788Z,16.97
2018-07-14T05:22:46.779Z,16.93
2018-07-14T05:23:46.844Z,16.99
2018-07-14T05:25:39.845Z,17.04
2018-07-14T05:26:39.900Z,16.96
2018-07-14T05:28:32.899Z,17.14
2018-07-14T05:29:32.960Z,17.15
2018-07-14T05:31:25.957Z,17.30
2018-07-14T05:32:26.015Z,17.27
2018-07-14T05:34:19.008Z,17.29
2018-07-14T05:35:19.075Z,17.31
2018-07-14T05:37:12.073Z,17.44
2018-07-14T05:38:12.130Z,17.39
2018-07-14T05:40:05.122Z,17.51
2018-07-14T05:41:05.185Z,17.56
2018-07-14T05:42:58.188Z,17.56
2018-07-14T05:43:58.276Z,17.64
2018-07-14T05:45:51.244Z,17.67
2018-07-14T05:46:51.301Z,17.80
2018-07-14T05:48:44.295Z,17.80
2018-07-14T05:49:44.359Z,17.76
2018-07-14T05:51:37.358Z,17.86
2018-07-14T05:52:37.416Z,17.92
2018-07-14T05:54:30.417Z,17.98
2018-07-14T05:55:30.475Z,18.00
2018-07-14T05:57:23.529Z,18.11
2018-07-14T05:58:23.561Z,18.16
2018-07-14T06:00:16.545Z,18.25
2018-07-14T06:01:16.597Z,18.29
2018-07-14T06:03:09.596Z,18.37
2018-07-14T06:04:09.686Z,18.41
2018-07-14T06:06:02.669Z,18.55
2018-07-14T06:07:02.731Z,18.71
2018-07-14T06:08:55.770Z,18.70
2018-07-14T06:09:55.766Z,18.73
2018-07-14T06:11:48.775Z,18.90
2018-07-14T06:12:48.836Z,19.00
2018-07-14T06:14:41.823Z,19.11
2018-07-14T06:15:41.940Z,19.26
2018-07-14T06:17:34.913Z,19.58
2018-07-14T06:18:34.962Z,19.55
2018-07-14T06:20:27.972Z,20.10
2018-07-14T06:21:28.040Z,20.59
2018-07-14T06:23:21.599Z,22.14
2018-07-14T06:24:21.098Z,22.93
2018-07-14T06:26:14.135Z,23.91
2018-07-14T06:27:14.141Z,24.21
2018-07-14T06:29:07.180Z,24.73
2018-07-14T06:30:07.243Z,24.88
2018-07-14T06:32:00.460Z,25.54
2018-07-14T06:33:00.281Z,25.70
2018-07-14T06:34:53.267Z,26.38
2018-07-14T06:35:53.328Z,26.59
2018-07-14T06:37:46.335Z,26.85
2018-07-14T06:38:46.395Z,27.05
2018-07-14T06:40:39.404Z,27.48
2018-07-14T06:41:39.477Z,27.80
2018-07-14T06:43:32.476Z,28.02
2018-07-14T06:44:32.555Z,28.22
2018-07-14T06:46:25.548Z,28.37
2018-07-14T06:47:25.613Z,28.51
2018-07-14T06:49:18.632Z,28.69
2018-07-14T06:50:18.692Z,28.76
2018-07-14T06:52:11.712Z,28.82
2018-07-14T06:53:11.769Z,28.76
2018-07-14T06:55:04.786Z,28.94
2018-07-14T06:56:04.993Z,28.85
2018-07-14T06:57:57.865Z,29.02
2018-07-14T06:58:57.937Z,28.62
2018-07-14T07:00:50.939Z,29.20
2018-07-14T07:01:51.012Z,29.29
2018-07-14T07:03:44.028Z,29.39
2018-07-14T07:04:44.099Z,29.51
2018-07-14T07:06:37.213Z,29.60
2018-07-14T07:07:37.196Z,29.57
2018-07-14T07:09:30.206Z,29.32
2018-07-14T07:10:30.277Z,29.05
2018-07-14T07:12:23.287Z,29.16
2018-07-14T07:13:23.365Z,29.38
2018-07-14T07:15:16.380Z,29.86
2018-07-14T07:16:16.451Z,29.72
2018-07-14T07:18:09.461Z,30.28
2018-07-14T07:19:09.532Z,29.95
2018-07-14T07:21:02.552Z,30.08
2018-07-14T07:22:02.622Z,30.28
2018-07-14T07:23:55.648Z,30.39
2018-07-14T07:24:55.705Z,30.57
2018-07-14T07:26:48.719Z,30.84
2018-07-14T07:27:48.792Z,31.25
2018-07-14T07:29:41.815Z,31.29
2018-07-14T07:30:41.886Z,31.64
2018-07-14T07:32:34.909Z,31.78
2018-07-14T07:33:34.984Z,31.74
2018-07-14T07:35:28.006Z,31.55
2018-07-14T07:36:28.073Z,31.33
2018-07-14T07:38:21.091Z,31.40
2018-07-14T07:39:21.172Z,31.43
2018-07-14T07:41:14.187Z,31.89
2018-07-14T07:42:14.259Z,31.85
2018-07-14T07:44:07.274Z,31.96
2018-07-14T07:45:07.347Z,32.14
2018-07-14T07:47:00.371Z,31.87
2018-07-14T07:48:00.442Z,31.74
2018-07-14T07:49:53.467Z,31.34
2018-07-14T07:50:53.536Z,31.43
2018-07-14T07:52:46.552Z,31.80
2018-07-14T07:53:46.629Z,31.92
2018-07-14T07:55:39.650Z,31.31
2018-07-14T07:56:39.808Z,31.10
2018-07-14T07:58:32.744Z,31.52
2018-07-14T07:59:32.822Z,31.44
2018-07-14T08:01:25.854Z,31.99
2018-07-14T08:02:25.926Z,31.90
2018-07-14T08:04:18.945Z,31.73
2018-07-14T08:05:19.025Z,31.78
2018-07-14T08:07:12.567Z,31.87
2018-07-14T08:08:12.626Z,31.59
2018-07-14T08:10:05.653Z,31.31
2018-07-14T08:11:05.810Z,31.15
2018-07-14T08:12:58.757Z,31.89
2018-07-14T08:13:58.837Z,32.16
2018-07-14T08:15:51.859Z,32.93
2018-07-14T08:16:51.940Z,33.55
2018-07-14T08:18:44.955Z,33.73
2018-07-14T08:19:45.035Z,33.99
2018-07-14T08:21:38.062Z,34.38
2018-07-14T08:22:38.176Z,34.38
2018-07-14T08:24:31.154Z,33.77
2018-07-14T08:25:31.233Z,33.64
2018-07-14T08:27:24.261Z,33.65
2018-07-14T08:28:24.332Z,32.96
2018-07-14T08:30:17.357Z,33.15
2018-07-14T08:31:17.435Z,32.77
2018-07-14T08:33:10.461Z,32.74
2018-07-14T08:34:10.532Z,32.70
2018-07-14T08:36:03.576Z,32.82
2018-07-14T08:37:03.631Z,33.45
2018-07-14T08:38:56.653Z,33.39
2018-07-14T08:39:56.729Z,33.17
2018-07-14T08:41:49.761Z,33.01
2018-07-14T08:42:49.838Z,33.24
2018-07-14T08:44:42.879Z,34.13
2018-07-14T08:45:42.932Z,33.11
2018-07-14T08:47:35.962Z,31.87
2018-07-14T08:48:36.034Z,31.58
2018-07-14T08:50:29.074Z,32.63
2018-07-14T08:51:29.152Z,32.96
2018-07-14T08:53:22.171Z,33.20
2018-07-14T08:54:22.256Z,33.36
2018-07-14T08:56:15.292Z,33.65
2018-07-14T08:57:15.343Z,33.52
2018-07-14T08:59:08.362Z,33.87
2018-07-14T09:00:08.442Z,33.58
2018-07-14T09:02:01.486Z,33.27
2018-07-14T09:03:01.556Z,33.46
2018-07-14T09:04:54.577Z,33.61
2018-07-14T09:05:54.656Z,33.52
2018-07-14T09:07:47.685Z,34.14
2018-07-14T09:08:47.757Z,34.77
2018-07-14T09:10:40.839Z,34.92
2018-07-14T09:11:40.871Z,34.93
2018-07-14T09:13:34.415Z,34.93
2018-07-14T09:14:34.629Z,34.62
2018-07-14T09:16:27.601Z,34.86
2018-07-14T09:17:27.609Z,35.31
2018-07-14T09:19:20.645Z,34.60
2018-07-14T09:20:20.716Z,34.08
2018-07-14T09:22:13.746Z,31.64
2018-07-14T09:23:13.826Z,32.14
2018-07-14T09:25:06.857Z,32.78
2018-07-14T09:26:06.995Z,33.53
2018-07-14T09:27:59.964Z,33.64
2018-07-14T09:29:00.033Z,33.92
2018-07-14T09:30:53.066Z,33.52
2018-07-14T09:31:53.147Z,33.30
2018-07-14T09:33:46.178Z,33.20
2018-07-14T09:34:46.250Z,33.45
2018-07-14T09:36:39.284Z,33.23
2018-07-14T09:37:39.364Z,32.74
2018-07-14T09:39:32.401Z,31.42
2018-07-14T09:40:32.473Z,30.57
2018-07-14T09:42:25.501Z,29.54
2018-07-14T09:43:25.580Z,29.49
2018-07-14T09:45:18.610Z,28.75
2018-07-14T09:46:18.683Z,28.60
2018-07-14T09:48:11.711Z,28.05
2018-07-14T09:49:11.781Z,28.07
2018-07-14T09:51:04.800Z,27.75
2018-07-14T09:52:04.875Z,27.67
2018-07-14T09:53:57.897Z,27.70
2018-07-14T09:54:57.962Z,27.02
2018-07-14T09:56:50.984Z,26.34
2018-07-14T09:57:51.056Z,26.65
2018-07-14T09:59:44.085Z,26.99
2018-07-14T10:00:44.152Z,26.88
2018-07-14T10:02:37.167Z,26.41
2018-07-14T10:03:37.236Z,26.43
2018-07-14T10:05:30.273Z,26.90
2018-07-14T10:06:30.491Z,27.15
2018-07-14T10:08:23.331Z,27.40
2018-07-14T10:09:23.410Z,27.47
2018-07-14T10:11:16.428Z,27.27
2018-07-14T10:12:16.515Z,27.29
2018-07-14T10:14:10.021Z,27.64
2018-07-14T10:15:10.076Z,27.68
2018-07-14T10:17:03.093Z,27.86
2018-07-14T10:18:03.162Z,28.10
2018-07-14T10:19:56.182Z,28.10
2018-07-14T10:20:56.246Z,27.78
2018-07-14T10:22:49.272Z,27.64
2018-07-14T10:23:49.351Z,27.55
2018-07-14T10:25:42.503Z,27.20
2018-07-14T10:26:42.450Z,27.08
2018-07-14T10:28:35.473Z,26.99
2018-07-14T10:29:35.546Z,26.95
2018-07-14T10:31:28.559Z,26.88
2018-07-14T10:32:28.627Z,27.10
2018-07-14T10:34:21.638Z,27.18
2018-07-14T10:35:21.702Z,27.21
2018-07-14T10:37:14.716Z,26.90
2018-07-14T10:38:14.791Z,27.07
2018-07-14T10:40:07.801Z,26.68
2018-07-14T10:41:07.864Z,25.80
2018-07-14T10:43:00.912Z,25.70
2018-07-14T10:44:00.959Z,26.06
2018-07-14T10:45:53.960Z,26.28
2018-07-14T10:46:54.108Z,26.38
2018-07-14T10:48:47.030Z,26.77
2018-07-14T10:49:47.142Z,26.74
2018-07-14T10:51:40.201Z,26.66
2018-07-14T10:52:40.217Z,26.74
2018-07-14T10:54:33.177Z,26.40
2018-07-14T10:55:34.382Z,26.44
2018-07-14T10:57:26.264Z,26.56
2018-07-14T10:58:26.331Z,26.65
2018-07-14T11:00:19.340Z,26.75
2018-07-14T11:01:19.409Z,26.89
2018-07-14T11:03:12.420Z,26.96
2018-07-14T11:04:12.495Z,26.97
2018-07-14T11:06:05.491Z,26.93
2018-07-14T11:07:05.558Z,26.90
2018-07-14T11:08:58.578Z,26.52
2018-07-14T11:09:58.642Z,26.62
2018-07-14T11:11:51.649Z,26.97
2018-07-14T11:12:51.714Z,26.96
2018-07-14T11:14:44.721Z,26.95
2018-07-14T11:15:44.793Z,26.96
2018-07-14T11:17:37.808Z,26.92
2018-07-14T11:18:37.873Z,26.93
2018-07-14T11:20:30.887Z,26.83
2018-07-14T11:21:30.957Z,26.95
2018-07-14T11:23:24.017Z,26.73
2018-07-14T11:24:24.041Z,26.68
2018-07-14T11:26:17.058Z,26.71
2018-07-14T11:27:17.107Z,26.89
2018-07-14T11:29:10.114Z,26.68
2018-07-14T11:30:10.251Z,26.60
2018-07-14T11:32:03.192Z,26.56
2018-07-14T11:33:03.256Z,26.66
2018-07-14T11:34:56.264Z,26.89
2018-07-14T11:35:56.335Z,26.89
2018-07-14T11:37:49.433Z,26.89
2018-07-14T11:38:49.408Z,26.96
2018-07-14T11:40:54.039Z,26.92
2018-07-14T11:41:54.103Z,26.80
2018-07-14T11:43:47.139Z,26.85
2018-07-14T11:44:47.213Z,26.88
2018-07-14T11:46:40.209Z,26.84
2018-07-14T11:47:40.374Z,26.71
2018-07-14T11:49:33.286Z,26.85
2018-07-14T11:50:33.356Z,26.75
2018-07-14T11:52:26.384Z,26.83
2018-07-14T11:53:26.427Z,26.93
2018-07-14T11:55:19.493Z,26.93
2018-07-14T11:56:19.521Z,26.92
2018-07-14T11:58:12.728Z,26.88
2018-07-14T11:59:12.623Z,26.88
2018-07-14T12:01:05.606Z,26.92
2018-07-14T12:02:05.680Z,27.05
2018-07-14T12:03:58.679Z,27.15
2018-07-14T12:04:58.743Z,27.26
2018-07-14T12:06:51.754Z,27.39
2018-07-14T12:07:51.816Z,27.40
2018-07-14T12:09:56.455Z,27.32
2018-07-14T12:10:56.519Z,27.33
2018-07-14T12:12:49.517Z,27.17
2018-07-14T12:13:49.589Z,27.10
2018-07-14T12:15:42.607Z,26.95
2018-07-14T12:16:42.671Z,27.07
2018-07-14T12:18:35.702Z,27.36
2018-07-14T12:19:35.756Z,27.48
2018-07-14T12:21:28.752Z,27.68
2018-07-14T12:22:28.830Z,27.49
2018-07-14T12:24:21.843Z,27.40
2018-07-14T12:25:22.087Z,27.33
2018-07-14T12:27:14.914Z,27.00
2018-07-14T12:28:14.981Z,26.88
2018-07-14T12:30:08.020Z,26.56
2018-07-14T12:31:08.068Z,26.48
2018-07-14T12:33:01.126Z,26.22
2018-07-14T12:34:01.193Z,26.34
2018-07-14T12:35:54.199Z,26.47
2018-07-14T12:36:54.261Z,26.47
2018-07-14T12:38:47.284Z,26.60
2018-07-14T12:39:47.333Z,26.58
2018-07-14T12:41:40.339Z,26.58
2018-07-14T12:42:40.405Z,26.58
2018-07-14T12:44:33.415Z,26.81
2018-07-14T12:45:33.479Z,26.85
2018-07-14T12:47:26.483Z,27.14
2018-07-14T12:48:26.555Z,27.25
2018-07-14T12:50:19.561Z,27.42
2018-07-14T12:51:19.624Z,27.32
2018-07-14T12:53:12.632Z,27.25
2018-07-14T12:54:12.704Z,27.05
2018-07-14T12:56:05.714Z,26.88
2018-07-14T12:57:05.778Z,26.85
2018-07-14T12:58:58.789Z,26.68
2018-07-14T12:59:58.893Z,26.60
2018-07-14T13:01:51.880Z,26.53
2018-07-14T13:02:51.939Z,26.59
2018-07-14T13:04:44.960Z,26.78
2018-07-14T13:05:45.011Z,26.78
2018-07-14T13:07:38.110Z,26.85
2018-07-14T13:08:38.085Z,26.90
2018-07-14T13:10:31.608Z,26.95
2018-07-14T13:11:31.668Z,26.89
2018-07-14T13:13:24.674Z,26.90
2018-07-14T13:14:24.741Z,26.93
2018-07-14T13:16:17.762Z,27.02
2018-07-14T13:17:17.900Z,26.99
2018-07-14T13:19:10.829Z,27.05
2018-07-14T13:20:10.895Z,27.03
2018-07-14T13:22:03.909Z,27.14
2018-07-14T13:23:03.973Z,27.15
2018-07-14T13:24:56.978Z,27.22
2018-07-14T13:25:57.212Z,27.29
2018-07-14T13:27:50.056Z,27.02
2018-07-14T13:28:50.119Z,27.05
2018-07-14T13:30:43.137Z,27.00
2018-07-14T13:31:43.201Z,26.97
2018-07-14T13:33:36.205Z,26.96
2018-07-14T13:34:36.274Z,27.05
2018-07-14T13:36:29.359Z,27.02
2018-07-14T13:37:29.351Z,26.99
2018-07-14T13:39:22.355Z,26.99
2018-07-14T13:40:22.422Z,27.00
2018-07-14T13:42:15.431Z,27.03
2018-07-14T13:43:15.495Z,27.14
2018-07-14T13:45:08.498Z,27.29
2018-07-14T13:46:08.564Z,27.45
2018-07-14T13:48:01.578Z,27.60
2018-07-14T13:49:01.638Z,27.63
2018-07-14T13:50:54.644Z,27.64
2018-07-14T13:51:54.715Z,27.73
2018-07-14T13:53:47.724Z,27.51
2018-07-14T13:54:47.786Z,27.37
2018-07-14T13:56:40.801Z,27.11
2018-07-14T13:57:40.865Z,26.96
2018-07-14T13:59:33.871Z,26.92
2018-07-14T14:00:34.226Z,26.85
2018-07-14T14:02:26.950Z,26.78
2018-07-14T14:03:27.014Z,26.75
2018-07-14T14:05:20.023Z,26.85
2018-07-14T14:06:20.092Z,26.96
2018-07-14T14:08:13.112Z,27.03
2018-07-14T14:09:13.178Z,26.88
2018-07-14T14:11:06.182Z,26.85
2018-07-14T14:12:06.249Z,26.95
2018-07-14T14:13:59.258Z,27.03
2018-07-14T14:14:59.321Z,27.10
2018-07-14T14:16:52.327Z,27.29
2018-07-14T14:17:52.394Z,27.33
2018-07-14T14:19:45.404Z,27.51
2018-07-14T14:20:45.473Z,27.47
2018-07-14T14:22:38.482Z,27.51
2018-07-14T14:23:38.544Z,27.54
2018-07-14T14:25:31.555Z,27.65
2018-07-14T14:26:31.622Z,27.73
2018-07-14T14:28:24.632Z,27.67
2018-07-14T14:29:24.695Z,27.64
2018-07-14T14:31:17.700Z,27.70
2018-07-14T14:32:17.768Z,27.55
2018-07-14T14:34:10.784Z,27.52
2018-07-14T14:35:10.843Z,27.64
2018-07-14T14:37:03.845Z,27.67
2018-07-14T14:38:03.919Z,27.52
2018-07-14T14:39:56.926Z,27.39
2018-07-14T14:40:57.035Z,27.32
2018-07-14T14:42:50.003Z,27.36
2018-07-14T14:43:50.063Z,27.39
2018-07-14T14:45:43.074Z,27.42
2018-07-14T14:46:43.142Z,27.37
2018-07-14T14:48:36.162Z,27.39
2018-07-14T14:49:36.226Z,27.36
2018-07-14T14:51:29.232Z,27.30
2018-07-14T14:52:29.297Z,27.42
2018-07-14T14:54:22.312Z,27.35
2018-07-14T14:55:22.372Z,27.33
2018-07-14T14:57:15.379Z,27.33
2018-07-14T14:58:15.448Z,27.33
2018-07-14T15:00:08.476Z,27.32
2018-07-14T15:01:08.542Z,27.36
2018-07-14T15:03:01.550Z,27.36
2018-07-14T15:04:01.611Z,27.39
2018-07-14T15:05:54.620Z,27.70
2018-07-14T15:06:54.683Z,27.68
2018-07-14T15:08:47.698Z,27.70
2018-07-14T15:09:47.763Z,27.70
2018-07-14T15:11:40.770Z,27.64
2018-07-14T15:12:40.840Z,27.63
2018-07-14T15:14:33.855Z,27.49
2018-07-14T15:15:33.919Z,27.49
2018-07-14T15:17:26.926Z,27.45
2018-07-14T15:18:26.995Z,27.36
2018-07-14T15:20:20.008Z,27.40
2018-07-14T15:21:20.071Z,27.29
2018-07-14T15:23:13.077Z,27.12
2018-07-14T15:24:13.145Z,27.12
2018-07-14T15:26:06.153Z,26.95
2018-07-14T15:27:06.215Z,26.97
2018-07-14T15:28:59.227Z,26.88
2018-07-14T15:29:59.288Z,26.95
2018-07-14T15:31:52.301Z,27.00
2018-07-14T15:32:52.437Z,26.97
2018-07-14T15:34:45.381Z,26.95
2018-07-14T15:35:45.445Z,26.88
2018-07-14T15:37:38.449Z,26.92
2018-07-14T15:38:38.532Z,26.90
2018-07-14T15:40:31.524Z,26.97
2018-07-14T15:41:31.666Z,27.00
2018-07-14T15:43:24.592Z,27.00
2018-07-14T15:44:24.658Z,26.97
2018-07-14T15:46:17.671Z,26.93
2018-07-14T15:47:17.731Z,26.90
2018-07-14T15:49:10.743Z,26.84
2018-07-14T15:50:10.814Z,26.90
2018-07-14T15:52:03.817Z,26.92
2018-07-14T15:53:03.882Z,26.88
2018-07-14T15:54:56.891Z,26.99
2018-07-14T15:55:56.953Z,26.97
2018-07-14T15:57:49.959Z,27.00
2018-07-14T15:58:50.028Z,27.00
2018-07-14T16:00:43.046Z,26.84
2018-07-14T16:01:43.099Z,26.95
2018-07-14T16:03:36.109Z,26.88
2018-07-14T16:04:36.173Z,26.85
2018-07-14T16:06:29.184Z,26.74
2018-07-14T16:07:29.245Z,26.85
2018-07-14T16:09:22.283Z,26.85
2018-07-14T16:10:22.356Z,26.93
2018-07-14T16:12:15.785Z,26.88
2018-07-14T16:13:15.429Z,26.90
2018-07-14T16:15:08.434Z,26.95
2018-07-14T16:16:08.505Z,26.84
2018-07-14T16:18:01.520Z,26.83
2018-07-14T16:19:01.606Z,26.85
2018-07-14T16:20:54.652Z,26.93
2018-07-14T16:21:54.656Z,26.83
2018-07-14T16:23:47.661Z,26.88
2018-07-14T16:24:47.727Z,26.85
2018-07-14T16:26:40.733Z,26.85
2018-07-14T16:27:40.798Z,26.80
2018-07-14T16:29:33.801Z,26.95
2018-07-14T16:30:33.870Z,26.85
2018-07-14T16:32:26.884Z,26.93
2018-07-14T16:33:26.941Z,26.84
2018-07-14T16:35:19.949Z,26.90
2018-07-14T16:36:20.020Z,26.84
2018-07-14T16:38:13.029Z,26.84
2018-07-14T16:39:13.090Z,26.84
2018-07-14T16:41:06.101Z,26.89
2018-07-14T16:42:06.162Z,26.77
2018-07-14T16:43:59.169Z,26.77
2018-07-14T16:44:59.231Z,26.75
2018-07-14T16:46:52.245Z,26.70
2018-07-14T16:47:52.311Z,26.70
2018-07-14T16:49:45.316Z,26.56
2018-07-14T16:50:45.378Z,26.70
2018-07-14T16:52:38.405Z,26.70
2018-07-14T16:53:38.467Z,26.60
2018-07-14T16:55:31.479Z,26.43
2018-07-14T16:56:31.538Z,26.48
2018-07-14T16:58:24.546Z,26.45
2018-07-14T16:59:24.609Z,26.40
2018-07-14T17:01:17.611Z,26.48
2018-07-14T17:02:17.680Z,26.48
2018-07-14T17:04:10.688Z,26.55
2018-07-14T17:05:10.749Z,26.53
2018-07-14T17:07:03.755Z,26.55
2018-07-14T17:08:03.820Z,26.48
2018-07-14T17:09:57.349Z,26.47
2018-07-14T17:10:57.408Z,26.40
2018-07-14T17:12:50.417Z,26.48
2018-07-14T17:13:50.523Z,26.44
2018-07-14T17:15:43.484Z,26.34
2018-07-14T17:16:43.739Z,26.41
2018-07-14T17:18:36.577Z,26.44
2018-07-14T17:19:36.641Z,26.40
2018-07-14T17:21:29.646Z,26.43
2018-07-14T17:22:29.958Z,26.40
2018-07-14T17:24:22.725Z,26.44
2018-07-14T17:25:22.785Z,26.34
2018-07-14T17:27:15.791Z,26.33
2018-07-14T17:28:15.856Z,26.19
2018-07-14T17:30:08.871Z,26.22
2018-07-14T17:31:08.931Z,26.28
2018-07-14T17:33:01.954Z,26.22
2018-07-14T17:34:02.007Z,26.19
2018-07-14T17:35:55.014Z,26.06
2018-07-14T17:36:55.076Z,26.19
2018-07-14T17:38:48.084Z,26.13
2018-07-14T17:39:48.152Z,26.03
2018-07-14T17:41:41.167Z,26.06
2018-07-14T17:42:41.228Z,26.00
2018-07-14T17:44:34.235Z,25.95
2018-07-14T17:45:34.301Z,25.85
2018-07-14T17:47:27.813Z,25.81
2018-07-14T17:48:27.877Z,25.83
2018-07-14T17:50:21.400Z,25.77
2018-07-14T17:51:21.463Z,25.75
2018-07-14T17:53:14.505Z,25.81
2018-07-14T17:54:14.528Z,25.81
2018-07-14T17:56:07.542Z,25.72
2018-07-14T17:57:07.603Z,25.70
2018-07-14T17:59:00.605Z,25.68
2018-07-14T18:00:00.731Z,25.75
2018-07-14T18:01:53.682Z,25.66
2018-07-14T18:02:53.810Z,25.62
2018-07-14T18:04:46.749Z,25.65
2018-07-14T18:05:46.812Z,25.60
2018-07-14T18:07:39.812Z,25.50
2018-07-14T18:08:39.881Z,25.53
2018-07-14T18:10:32.892Z,25.51
2018-07-14T18:11:32.954Z,25.55
2018-07-14T18:13:25.959Z,25.54
2018-07-14T18:14:26.026Z,25.50
2018-07-14T18:16:19.035Z,25.48
2018-07-14T18:17:19.094Z,25.41
2018-07-14T18:19:12.094Z,25.38
2018-07-14T18:20:12.189Z,25.35
2018-07-14T18:22:05.178Z,25.26
2018-07-14T18:23:05.230Z,25.23
2018-07-14T18:24:58.226Z,25.25
2018-07-14T18:25:58.299Z,25.11
2018-07-14T18:27:51.299Z,25.08
2018-07-14T18:28:51.360Z,25.06
2018-07-14T18:30:44.366Z,25.08
2018-07-14T18:31:44.427Z,25.01
2018-07-14T18:33:37.456Z,24.92
2018-07-14T18:34:37.494Z,24.98